sensor_id;sensor_type;location;lat;lon;timestamp;P1;durP1;ratioP1;P2;durP2;ratioP2
67757;SDS011;54562;47.620;18.786;2023-04-09T00:00:28;22.20;;;14.70;;
67757;SDS011;54562;47.620;18.786;2023-04-09T00:03:37;23.90;;;14.60;;
67757;SDS011;54562;47.620;18.786;2023-04-09T00:06:45;22.00;;;14.40;;
67757;SDS011;54562;47.620;18.786;2023-04-09T00:09:55;23.30;;;14.20;;
67757;SDS011;54562;47.620;18.786;2023-04-09T00:13:03;22.70;;;14.00;;
67757;SDS011;54562;47.620;18.786;2023-04-09T00:16:11;24.50;;;15.20;;
67757;SDS011;54562;47.620;18.786;2023-04-09T00:19:19;23.10;;;15.50;;
67757;SDS011;54562;47.620;18.786;2023-04-09T00:22:27;26.90;;;15.10;;
67757;SDS011;54562;47.620;18.786;2023-04-09T00:25:35;25.10;;;15.60;;
67757;SDS011;54562;47.620;18.786;2023-04-09T00:28:44;26.50;;;15.70;;
67757;SDS011;54562;47.620;18.786;2023-04-09T00:32:00;25.60;;;16.00;;
67757;SDS011;54562;47.620;18.786;2023-04-09T00:35:09;22.60;;;14.50;;
67757;SDS011;54562;47.620;18.786;2023-04-09T00:38:17;25.50;;;14.20;;
67757;SDS011;54562;47.620;18.786;2023-04-09T00:41:25;25.00;;;15.20;;
67757;SDS011;54562;47.620;18.786;2023-04-09T00:44:33;25.50;;;15.40;;
67757;SDS011;54562;47.620;18.786;2023-04-09T00:47:41;26.00;;;16.10;;
67757;SDS011;54562;47.620;18.786;2023-04-09T00:50:50;26.00;;;15.00;;
67757;SDS011;54562;47.620;18.786;2023-04-09T00:53:58;23.80;;;14.20;;
67757;SDS011;54562;47.620;18.786;2023-04-09T00:57:06;25.30;;;15.70;;
67757;SDS011;54562;47.620;18.786;2023-04-09T01:00:15;27.20;;;16.50;;
67757;SDS011;54562;47.620;18.786;2023-04-09T01:03:24;23.90;;;15.10;;
67757;SDS011;54562;47.620;18.786;2023-04-09T01:06:41;23.90;;;13.90;;
67757;SDS011;54562;47.620;18.786;2023-04-09T01:10:00;23.30;;;14.80;;
67757;SDS011;54562;47.620;18.786;2023-04-09T01:13:23;26.50;;;15.10;;
67757;SDS011;54562;47.620;18.786;2023-04-09T01:16:37;26.80;;;16.50;;
67757;SDS011;54562;47.620;18.786;2023-04-09T01:19:53;28.30;;;16.40;;
67757;SDS011;54562;47.620;18.786;2023-04-09T01:23:17;28.10;;;15.80;;
67757;SDS011;54562;47.620;18.786;2023-04-09T01:26:43;30.80;;;16.40;;
67757;SDS011;54562;47.620;18.786;2023-04-09T01:30:00;30.40;;;15.90;;
67757;SDS011;54562;47.620;18.786;2023-04-09T01:33:14;37.90;;;16.10;;
67757;SDS011;54562;47.620;18.786;2023-04-09T01:36:26;30.00;;;15.40;;
67757;SDS011;54562;47.620;18.786;2023-04-09T01:39:37;30.40;;;15.30;;
67757;SDS011;54562;47.620;18.786;2023-04-09T01:45:53;29.70;;;14.00;;
67757;SDS011;54562;47.620;18.786;2023-04-09T01:49:02;36.10;;;14.60;;
67757;SDS011;54562;47.620;18.786;2023-04-09T01:52:10;35.80;;;14.20;;
67757;SDS011;54562;47.620;18.786;2023-04-09T01:55:20;31.00;;;13.20;;
67757;SDS011;54562;47.620;18.786;2023-04-09T01:58:28;27.00;;;12.60;;
67757;SDS011;54562;47.620;18.786;2023-04-09T02:04:48;21.50;;;11.60;;
67757;SDS011;54562;47.620;18.786;2023-04-09T02:08:02;25.70;;;12.50;;
67757;SDS011;54562;47.620;18.786;2023-04-09T02:11:14;24.30;;;12.60;;
67757;SDS011;54562;47.620;18.786;2023-04-09T02:14:26;20.30;;;11.90;;
67757;SDS011;54562;47.620;18.786;2023-04-09T02:17:36;19.80;;;12.60;;
67757;SDS011;54562;47.620;18.786;2023-04-09T02:20:45;20.30;;;13.20;;
67757;SDS011;54562;47.620;18.786;2023-04-09T02:23:53;20.50;;;12.50;;
67757;SDS011;54562;47.620;18.786;2023-04-09T02:27:01;19.50;;;12.00;;
67757;SDS011;54562;47.620;18.786;2023-04-09T02:30:10;18.50;;;11.90;;
67757;SDS011;54562;47.620;18.786;2023-04-09T02:33:19;19.90;;;12.50;;
67757;SDS011;54562;47.620;18.786;2023-04-09T02:36:26;20.80;;;12.60;;
67757;SDS011;54562;47.620;18.786;2023-04-09T02:39:35;21.30;;;12.20;;
67757;SDS011;54562;47.620;18.786;2023-04-09T02:42:43;20.80;;;12.90;;
67757;SDS011;54562;47.620;18.786;2023-04-09T02:45:52;22.70;;;13.40;;
67757;SDS011;54562;47.620;18.786;2023-04-09T02:49:00;21.10;;;13.20;;
67757;SDS011;54562;47.620;18.786;2023-04-09T02:52:10;21.60;;;13.00;;
67757;SDS011;54562;47.620;18.786;2023-04-09T02:55:20;19.50;;;12.20;;
67757;SDS011;54562;47.620;18.786;2023-04-09T02:58:28;23.00;;;12.70;;
67757;SDS011;54562;47.620;18.786;2023-04-09T03:01:36;20.10;;;12.70;;
67757;SDS011;54562;47.620;18.786;2023-04-09T03:04:45;21.10;;;11.70;;
67757;SDS011;54562;47.620;18.786;2023-04-09T03:07:54;22.60;;;12.80;;
67757;SDS011;54562;47.620;18.786;2023-04-09T03:11:02;20.60;;;12.90;;
67757;SDS011;54562;47.620;18.786;2023-04-09T03:14:11;25.90;;;14.70;;
67757;SDS011;54562;47.620;18.786;2023-04-09T03:17:19;25.00;;;13.10;;
67757;SDS011;54562;47.620;18.786;2023-04-09T03:20:30;27.20;;;13.50;;
67757;SDS011;54562;47.620;18.786;2023-04-09T03:23:38;22.30;;;13.10;;
67757;SDS011;54562;47.620;18.786;2023-04-09T03:26:48;29.10;;;14.80;;
67757;SDS011;54562;47.620;18.786;2023-04-09T03:29:57;22.90;;;13.90;;
67757;SDS011;54562;47.620;18.786;2023-04-09T03:33:05;26.60;;;15.00;;
67757;SDS011;54562;47.620;18.786;2023-04-09T03:36:13;27.10;;;13.90;;
67757;SDS011;54562;47.620;18.786;2023-04-09T03:39:21;25.10;;;13.40;;
67757;SDS011;54562;47.620;18.786;2023-04-09T03:42:29;25.80;;;13.90;;
67757;SDS011;54562;47.620;18.786;2023-04-09T03:45:38;28.70;;;15.30;;
67757;SDS011;54562;47.620;18.786;2023-04-09T03:48:48;27.60;;;12.60;;
67757;SDS011;54562;47.620;18.786;2023-04-09T03:51:57;24.90;;;12.90;;
67757;SDS011;54562;47.620;18.786;2023-04-09T03:55:07;23.00;;;12.70;;
67757;SDS011;54562;47.620;18.786;2023-04-09T03:58:16;26.80;;;15.20;;
67757;SDS011;54562;47.620;18.786;2023-04-09T04:01:26;25.00;;;14.30;;
67757;SDS011;54562;47.620;18.786;2023-04-09T04:04:34;28.20;;;15.00;;
67757;SDS011;54562;47.620;18.786;2023-04-09T04:07:43;28.70;;;15.20;;
67757;SDS011;54562;47.620;18.786;2023-04-09T04:10:51;22.90;;;13.00;;
67757;SDS011;54562;47.620;18.786;2023-04-09T04:13:59;25.00;;;14.20;;
67757;SDS011;54562;47.620;18.786;2023-04-09T04:17:08;24.60;;;14.40;;
67757;SDS011;54562;47.620;18.786;2023-04-09T04:20:17;23.90;;;14.00;;
67757;SDS011;54562;47.620;18.786;2023-04-09T04:23:25;23.40;;;13.80;;
67757;SDS011;54562;47.620;18.786;2023-04-09T04:26:34;23.00;;;13.60;;
67757;SDS011;54562;47.620;18.786;2023-04-09T04:29:41;22.90;;;13.40;;
67757;SDS011;54562;47.620;18.786;2023-04-09T04:32:50;23.40;;;13.80;;
67757;SDS011;54562;47.620;18.786;2023-04-09T04:36:07;26.10;;;14.30;;
67757;SDS011;54562;47.620;18.786;2023-04-09T04:39:16;23.00;;;12.90;;
67757;SDS011;54562;47.620;18.786;2023-04-09T04:42:25;25.00;;;14.00;;
67757;SDS011;54562;47.620;18.786;2023-04-09T04:45:33;23.90;;;14.10;;
67757;SDS011;54562;47.620;18.786;2023-04-09T04:48:41;26.40;;;13.90;;
67757;SDS011;54562;47.620;18.786;2023-04-09T04:51:49;25.40;;;15.30;;
67757;SDS011;54562;47.620;18.786;2023-04-09T04:54:58;24.90;;;12.80;;
67757;SDS011;54562;47.620;18.786;2023-04-09T04:58:06;25.00;;;14.40;;
67757;SDS011;54562;47.620;18.786;2023-04-09T05:01:14;24.20;;;14.00;;
67757;SDS011;54562;47.620;18.786;2023-04-09T05:04:23;29.90;;;14.90;;
67757;SDS011;54562;47.620;18.786;2023-04-09T05:07:33;28.30;;;15.20;;
67757;SDS011;54562;47.620;18.786;2023-04-09T05:10:42;29.10;;;15.50;;
67757;SDS011;54562;47.620;18.786;2023-04-09T05:13:50;27.80;;;15.90;;
67757;SDS011;54562;47.620;18.786;2023-04-09T05:16:59;30.40;;;15.70;;
67757;SDS011;54562;47.620;18.786;2023-04-09T05:20:08;25.60;;;14.20;;
67757;SDS011;54562;47.620;18.786;2023-04-09T05:23:19;26.80;;;13.90;;
67757;SDS011;54562;47.620;18.786;2023-04-09T05:26:27;29.40;;;14.70;;
67757;SDS011;54562;47.620;18.786;2023-04-09T05:29:35;27.70;;;15.30;;
67757;SDS011;54562;47.620;18.786;2023-04-09T05:32:42;27.20;;;14.20;;
67757;SDS011;54562;47.620;18.786;2023-04-09T05:35:51;33.70;;;15.90;;
67757;SDS011;54562;47.620;18.786;2023-04-09T05:38:59;35.40;;;13.80;;
67757;SDS011;54562;47.620;18.786;2023-04-09T05:42:07;26.60;;;13.30;;
67757;SDS011;54562;47.620;18.786;2023-04-09T05:45:15;33.80;;;14.40;;
67757;SDS011;54562;47.620;18.786;2023-04-09T05:48:24;23.90;;;13.00;;
67757;SDS011;54562;47.620;18.786;2023-04-09T05:51:32;29.40;;;14.00;;
67757;SDS011;54562;47.620;18.786;2023-04-09T05:54:40;27.50;;;14.10;;
67757;SDS011;54562;47.620;18.786;2023-04-09T05:57:48;24.20;;;14.00;;
67757;SDS011;54562;47.620;18.786;2023-04-09T06:00:59;24.10;;;13.50;;
67757;SDS011;54562;47.620;18.786;2023-04-09T06:04:06;26.50;;;14.80;;
67757;SDS011;54562;47.620;18.786;2023-04-09T06:07:15;26.80;;;14.90;;
67757;SDS011;54562;47.620;18.786;2023-04-09T06:10:25;26.30;;;14.00;;
67757;SDS011;54562;47.620;18.786;2023-04-09T06:16:39;22.30;;;12.20;;
67757;SDS011;54562;47.620;18.786;2023-04-09T06:19:47;26.20;;;15.20;;
67757;SDS011;54562;47.620;18.786;2023-04-09T06:22:55;25.30;;;14.10;;
67757;SDS011;54562;47.620;18.786;2023-04-09T06:26:04;26.90;;;14.90;;
67757;SDS011;54562;47.620;18.786;2023-04-09T06:29:11;25.10;;;14.30;;
67757;SDS011;54562;47.620;18.786;2023-04-09T06:32:20;24.00;;;13.70;;
67757;SDS011;54562;47.620;18.786;2023-04-09T06:35:28;25.80;;;14.70;;
67757;SDS011;54562;47.620;18.786;2023-04-09T06:38:36;29.50;;;16.30;;
67757;SDS011;54562;47.620;18.786;2023-04-09T06:41:44;26.10;;;14.70;;
67757;SDS011;54562;47.620;18.786;2023-04-09T06:44:52;25.50;;;14.30;;
67757;SDS011;54562;47.620;18.786;2023-04-09T06:48:00;24.90;;;14.00;;
67757;SDS011;54562;47.620;18.786;2023-04-09T06:51:09;22.00;;;13.10;;
67757;SDS011;54562;47.620;18.786;2023-04-09T06:54:19;24.50;;;14.50;;
67757;SDS011;54562;47.620;18.786;2023-04-09T07:00:32;26.40;;;15.10;;
67757;SDS011;54562;47.620;18.786;2023-04-09T07:03:40;21.30;;;13.60;;
67757;SDS011;54562;47.620;18.786;2023-04-09T07:06:48;25.80;;;14.50;;
67757;SDS011;54562;47.620;18.786;2023-04-09T07:09:56;24.40;;;14.30;;
67757;SDS011;54562;47.620;18.786;2023-04-09T07:13:05;21.90;;;13.00;;
67757;SDS011;54562;47.620;18.786;2023-04-09T07:16:14;23.60;;;13.60;;
67757;SDS011;54562;47.620;18.786;2023-04-09T07:19:22;23.10;;;12.90;;
67757;SDS011;54562;47.620;18.786;2023-04-09T07:22:30;22.40;;;13.80;;
67757;SDS011;54562;47.620;18.786;2023-04-09T07:25:38;23.00;;;13.30;;
67757;SDS011;54562;47.620;18.786;2023-04-09T07:28:47;20.70;;;12.90;;
67757;SDS011;54562;47.620;18.786;2023-04-09T07:31:55;22.80;;;13.30;;
67757;SDS011;54562;47.620;18.786;2023-04-09T07:38:13;22.50;;;12.50;;
67757;SDS011;54562;47.620;18.786;2023-04-09T07:41:22;24.60;;;13.20;;
67757;SDS011;54562;47.620;18.786;2023-04-09T07:44:30;24.80;;;14.30;;
67757;SDS011;54562;47.620;18.786;2023-04-09T07:47:41;21.30;;;13.00;;
67757;SDS011;54562;47.620;18.786;2023-04-09T07:50:49;20.70;;;12.70;;
67757;SDS011;54562;47.620;18.786;2023-04-09T07:53:57;20.90;;;12.90;;
67757;SDS011;54562;47.620;18.786;2023-04-09T07:57:05;20.10;;;13.00;;
67757;SDS011;54562;47.620;18.786;2023-04-09T08:00:15;21.00;;;12.60;;
67757;SDS011;54562;47.620;18.786;2023-04-09T08:03:24;20.20;;;11.90;;
67757;SDS011;54562;47.620;18.786;2023-04-09T08:06:32;21.50;;;12.60;;
67757;SDS011;54562;47.620;18.786;2023-04-09T08:09:41;20.30;;;12.70;;
67757;SDS011;54562;47.620;18.786;2023-04-09T08:12:50;18.60;;;11.80;;
67757;SDS011;54562;47.620;18.786;2023-04-09T08:16:00;21.20;;;12.30;;
67757;SDS011;54562;47.620;18.786;2023-04-09T08:19:09;20.50;;;11.90;;
67757;SDS011;54562;47.620;18.786;2023-04-09T08:22:18;22.10;;;12.90;;
67757;SDS011;54562;47.620;18.786;2023-04-09T08:25:27;20.80;;;12.90;;
67757;SDS011;54562;47.620;18.786;2023-04-09T08:28:35;21.50;;;13.10;;
67757;SDS011;54562;47.620;18.786;2023-04-09T08:31:43;21.60;;;13.00;;
67757;SDS011;54562;47.620;18.786;2023-04-09T08:34:51;20.20;;;12.00;;
67757;SDS011;54562;47.620;18.786;2023-04-09T08:41:28;20.00;;;12.70;;
67757;SDS011;54562;47.620;18.786;2023-04-09T08:44:36;19.10;;;11.80;;
67757;SDS011;54562;47.620;18.786;2023-04-09T08:47:45;17.30;;;10.40;;
67757;SDS011;54562;47.620;18.786;2023-04-09T08:50:56;18.70;;;11.60;;
67757;SDS011;54562;47.620;18.786;2023-04-09T08:54:04;17.20;;;10.50;;
67757;SDS011;54562;47.620;18.786;2023-04-09T08:57:12;17.90;;;11.10;;
67757;SDS011;54562;47.620;18.786;2023-04-09T09:00:22;17.80;;;11.20;;
67757;SDS011;54562;47.620;18.786;2023-04-09T09:03:31;17.70;;;10.30;;
67757;SDS011;54562;47.620;18.786;2023-04-09T09:07:06;16.20;;;9.70;;
67757;SDS011;54562;47.620;18.786;2023-04-09T09:10:14;16.50;;;9.60;;
67757;SDS011;54562;47.620;18.786;2023-04-09T09:13:24;12.40;;;7.40;;
67757;SDS011;54562;47.620;18.786;2023-04-09T09:16:34;11.70;;;7.30;;
67757;SDS011;54562;47.620;18.786;2023-04-09T09:19:47;12.40;;;6.80;;
67757;SDS011;54562;47.620;18.786;2023-04-09T09:22:56;12.60;;;6.80;;
67757;SDS011;54562;47.620;18.786;2023-04-09T09:29:22;11.70;;;6.90;;
67757;SDS011;54562;47.620;18.786;2023-04-09T09:32:31;11.90;;;7.30;;
67757;SDS011;54562;47.620;18.786;2023-04-09T09:35:50;11.20;;;6.60;;
67757;SDS011;54562;47.620;18.786;2023-04-09T09:39:03;9.70;;;5.70;;
67757;SDS011;54562;47.620;18.786;2023-04-09T09:42:14;10.90;;;6.10;;
67757;SDS011;54562;47.620;18.786;2023-04-09T09:45:22;9.10;;;5.30;;
67757;SDS011;54562;47.620;18.786;2023-04-09T09:48:31;10.10;;;5.90;;
67757;SDS011;54562;47.620;18.786;2023-04-09T09:51:40;10.20;;;6.00;;
67757;SDS011;54562;47.620;18.786;2023-04-09T09:54:51;10.10;;;5.90;;
67757;SDS011;54562;47.620;18.786;2023-04-09T09:58:05;10.30;;;6.00;;
67757;SDS011;54562;47.620;18.786;2023-04-09T10:01:22;9.50;;;5.20;;
67757;SDS011;54562;47.620;18.786;2023-04-09T10:04:33;9.30;;;5.60;;
67757;SDS011;54562;47.620;18.786;2023-04-09T10:07:43;11.30;;;5.40;;
67757;SDS011;54562;47.620;18.786;2023-04-09T10:10:53;9.20;;;5.30;;
67757;SDS011;54562;47.620;18.786;2023-04-09T10:14:02;10.00;;;5.90;;
67757;SDS011;54562;47.620;18.786;2023-04-09T10:17:11;9.10;;;5.20;;
67757;SDS011;54562;47.620;18.786;2023-04-09T10:20:25;8.60;;;5.20;;
67757;SDS011;54562;47.620;18.786;2023-04-09T10:23:40;9.70;;;5.30;;
67757;SDS011;54562;47.620;18.786;2023-04-09T10:26:54;9.40;;;5.70;;
67757;SDS011;54562;47.620;18.786;2023-04-09T10:30:04;9.60;;;5.50;;
67757;SDS011;54562;47.620;18.786;2023-04-09T10:33:21;9.20;;;5.20;;
67757;SDS011;54562;47.620;18.786;2023-04-09T10:36:31;9.40;;;5.50;;
67757;SDS011;54562;47.620;18.786;2023-04-09T10:39:43;8.80;;;5.20;;
67757;SDS011;54562;47.620;18.786;2023-04-09T10:42:52;9.80;;;6.10;;
67757;SDS011;54562;47.620;18.786;2023-04-09T10:46:06;8.90;;;5.60;;
67757;SDS011;54562;47.620;18.786;2023-04-09T10:49:36;8.70;;;5.30;;
67757;SDS011;54562;47.620;18.786;2023-04-09T10:52:46;10.00;;;6.00;;
67757;SDS011;54562;47.620;18.786;2023-04-09T10:55:56;10.30;;;6.10;;
67757;SDS011;54562;47.620;18.786;2023-04-09T10:59:05;9.40;;;6.10;;
67757;SDS011;54562;47.620;18.786;2023-04-09T11:06:12;11.50;;;7.00;;
67757;SDS011;54562;47.620;18.786;2023-04-09T11:09:23;10.40;;;6.60;;
67757;SDS011;54562;47.620;18.786;2023-04-09T11:12:32;11.00;;;6.50;;
67757;SDS011;54562;47.620;18.786;2023-04-09T11:15:40;10.50;;;6.50;;
67757;SDS011;54562;47.620;18.786;2023-04-09T11:18:49;10.80;;;6.40;;
67757;SDS011;54562;47.620;18.786;2023-04-09T11:22:02;10.00;;;6.20;;
67757;SDS011;54562;47.620;18.786;2023-04-09T11:25:16;10.10;;;6.40;;
67757;SDS011;54562;47.620;18.786;2023-04-09T11:28:26;10.00;;;5.90;;
67757;SDS011;54562;47.620;18.786;2023-04-09T11:31:36;10.10;;;6.30;;
67757;SDS011;54562;47.620;18.786;2023-04-09T11:34:44;20.80;;;11.30;;
67757;SDS011;54562;47.620;18.786;2023-04-09T11:37:52;11.70;;;6.90;;
67757;SDS011;54562;47.620;18.786;2023-04-09T11:41:01;12.70;;;6.80;;
67757;SDS011;54562;47.620;18.786;2023-04-09T11:44:10;10.70;;;6.70;;
67757;SDS011;54562;47.620;18.786;2023-04-09T11:47:20;11.20;;;7.10;;
67757;SDS011;54562;47.620;18.786;2023-04-09T11:50:30;11.80;;;7.00;;
67757;SDS011;54562;47.620;18.786;2023-04-09T11:53:38;11.60;;;6.80;;
67757;SDS011;54562;47.620;18.786;2023-04-09T11:56:49;12.50;;;7.10;;
67757;SDS011;54562;47.620;18.786;2023-04-09T11:59:59;12.50;;;7.70;;
67757;SDS011;54562;47.620;18.786;2023-04-09T12:03:14;12.20;;;7.00;;
67757;SDS011;54562;47.620;18.786;2023-04-09T12:06:22;11.70;;;7.10;;
67757;SDS011;54562;47.620;18.786;2023-04-09T12:09:33;11.00;;;7.10;;
67757;SDS011;54562;47.620;18.786;2023-04-09T12:12:54;11.60;;;7.00;;
67757;SDS011;54562;47.620;18.786;2023-04-09T12:16:06;9.80;;;6.50;;
67757;SDS011;54562;47.620;18.786;2023-04-09T12:19:15;11.60;;;7.30;;
67757;SDS011;54562;47.620;18.786;2023-04-09T12:22:25;13.00;;;7.40;;
67757;SDS011;54562;47.620;18.786;2023-04-09T12:25:33;11.50;;;6.90;;
67757;SDS011;54562;47.620;18.786;2023-04-09T12:28:42;10.60;;;7.20;;
67757;SDS011;54562;47.620;18.786;2023-04-09T12:31:50;14.30;;;8.30;;
67757;SDS011;54562;47.620;18.786;2023-04-09T12:34:59;14.00;;;8.40;;
67757;SDS011;54562;47.620;18.786;2023-04-09T12:38:08;14.20;;;7.90;;
67757;SDS011;54562;47.620;18.786;2023-04-09T12:41:16;12.20;;;8.00;;
67757;SDS011;54562;47.620;18.786;2023-04-09T12:44:24;12.00;;;7.80;;
67757;SDS011;54562;47.620;18.786;2023-04-09T12:47:33;12.10;;;7.60;;
67757;SDS011;54562;47.620;18.786;2023-04-09T12:50:41;12.30;;;7.40;;
67757;SDS011;54562;47.620;18.786;2023-04-09T12:53:49;11.90;;;7.60;;
67757;SDS011;54562;47.620;18.786;2023-04-09T12:56:57;12.80;;;7.60;;
67757;SDS011;54562;47.620;18.786;2023-04-09T13:00:07;12.10;;;7.60;;
67757;SDS011;54562;47.620;18.786;2023-04-09T13:03:16;12.60;;;8.10;;
67757;SDS011;54562;47.620;18.786;2023-04-09T13:06:24;11.00;;;7.20;;
67757;SDS011;54562;47.620;18.786;2023-04-09T13:09:32;11.60;;;7.00;;
67757;SDS011;54562;47.620;18.786;2023-04-09T13:12:40;11.30;;;7.20;;
67757;SDS011;54562;47.620;18.786;2023-04-09T13:15:49;11.50;;;7.40;;
67757;SDS011;54562;47.620;18.786;2023-04-09T13:18:57;11.20;;;7.30;;
67757;SDS011;54562;47.620;18.786;2023-04-09T13:22:05;11.40;;;7.30;;
67757;SDS011;54562;47.620;18.786;2023-04-09T13:25:13;11.60;;;7.30;;
67757;SDS011;54562;47.620;18.786;2023-04-09T13:28:22;11.30;;;7.50;;
67757;SDS011;54562;47.620;18.786;2023-04-09T13:31:31;10.20;;;6.70;;
67757;SDS011;54562;47.620;18.786;2023-04-09T13:34:39;11.20;;;6.90;;
67757;SDS011;54562;47.620;18.786;2023-04-09T13:37:47;12.00;;;7.30;;
67757;SDS011;54562;47.620;18.786;2023-04-09T13:40:56;11.90;;;7.50;;
67757;SDS011;54562;47.620;18.786;2023-04-09T13:44:04;11.30;;;7.50;;
67757;SDS011;54562;47.620;18.786;2023-04-09T13:47:12;12.60;;;7.90;;
67757;SDS011;54562;47.620;18.786;2023-04-09T13:50:22;12.90;;;8.20;;
67757;SDS011;54562;47.620;18.786;2023-04-09T13:53:30;12.90;;;7.80;;
67757;SDS011;54562;47.620;18.786;2023-04-09T13:56:40;11.80;;;7.80;;
67757;SDS011;54562;47.620;18.786;2023-04-09T13:59:48;12.60;;;8.20;;
67757;SDS011;54562;47.620;18.786;2023-04-09T14:02:56;13.70;;;9.20;;
67757;SDS011;54562;47.620;18.786;2023-04-09T14:06:07;13.10;;;8.80;;
67757;SDS011;54562;47.620;18.786;2023-04-09T14:09:16;13.40;;;8.30;;
67757;SDS011;54562;47.620;18.786;2023-04-09T14:12:24;13.30;;;9.00;;
67757;SDS011;54562;47.620;18.786;2023-04-09T14:15:32;17.20;;;10.20;;
67757;SDS011;54562;47.620;18.786;2023-04-09T14:18:41;14.60;;;9.30;;
67757;SDS011;54562;47.620;18.786;2023-04-09T14:21:49;12.70;;;8.30;;
67757;SDS011;54562;47.620;18.786;2023-04-09T14:24:57;13.20;;;8.40;;
67757;SDS011;54562;47.620;18.786;2023-04-09T14:28:06;14.30;;;8.50;;
67757;SDS011;54562;47.620;18.786;2023-04-09T14:31:14;13.70;;;8.80;;
67757;SDS011;54562;47.620;18.786;2023-04-09T14:34:24;13.50;;;8.80;;
67757;SDS011;54562;47.620;18.786;2023-04-09T14:37:32;13.60;;;8.40;;
67757;SDS011;54562;47.620;18.786;2023-04-09T14:40:41;14.60;;;9.40;;
67757;SDS011;54562;47.620;18.786;2023-04-09T14:43:49;13.70;;;9.00;;
67757;SDS011;54562;47.620;18.786;2023-04-09T14:46:57;12.40;;;8.40;;
67757;SDS011;54562;47.620;18.786;2023-04-09T14:50:07;11.90;;;7.80;;
67757;SDS011;54562;47.620;18.786;2023-04-09T14:53:16;17.60;;;8.60;;
67757;SDS011;54562;47.620;18.786;2023-04-09T14:56:25;14.00;;;8.40;;
67757;SDS011;54562;47.620;18.786;2023-04-09T14:59:32;12.80;;;8.00;;
67757;SDS011;54562;47.620;18.786;2023-04-09T15:02:41;13.60;;;8.60;;
67757;SDS011;54562;47.620;18.786;2023-04-09T15:05:49;14.00;;;8.50;;
67757;SDS011;54562;47.620;18.786;2023-04-09T15:08:57;12.80;;;8.50;;
67757;SDS011;54562;47.620;18.786;2023-04-09T15:12:05;14.30;;;7.90;;
67757;SDS011;54562;47.620;18.786;2023-04-09T15:15:14;12.80;;;8.20;;
67757;SDS011;54562;47.620;18.786;2023-04-09T15:18:22;13.70;;;8.90;;
67757;SDS011;54562;47.620;18.786;2023-04-09T15:21:29;11.20;;;7.20;;
67757;SDS011;54562;47.620;18.786;2023-04-09T15:24:38;11.40;;;7.40;;
67757;SDS011;54562;47.620;18.786;2023-04-09T15:27:45;10.60;;;6.80;;
67757;SDS011;54562;47.620;18.786;2023-04-09T15:30:54;11.30;;;7.10;;
67757;SDS011;54562;47.620;18.786;2023-04-09T15:34:02;10.90;;;7.20;;
67757;SDS011;54562;47.620;18.786;2023-04-09T15:37:10;12.40;;;7.30;;
67757;SDS011;54562;47.620;18.786;2023-04-09T15:40:19;11.00;;;6.90;;
67757;SDS011;54562;47.620;18.786;2023-04-09T15:43:27;11.80;;;7.30;;
67757;SDS011;54562;47.620;18.786;2023-04-09T15:46:37;10.70;;;6.90;;
67757;SDS011;54562;47.620;18.786;2023-04-09T15:49:46;11.40;;;7.30;;
67757;SDS011;54562;47.620;18.786;2023-04-09T15:52:53;12.00;;;7.70;;
67757;SDS011;54562;47.620;18.786;2023-04-09T15:56:01;11.00;;;7.00;;
67757;SDS011;54562;47.620;18.786;2023-04-09T15:59:10;11.40;;;7.60;;
67757;SDS011;54562;47.620;18.786;2023-04-09T16:02:18;11.40;;;7.20;;
67757;SDS011;54562;47.620;18.786;2023-04-09T16:05:29;12.10;;;7.40;;
67757;SDS011;54562;47.620;18.786;2023-04-09T16:08:38;11.50;;;7.30;;
67757;SDS011;54562;47.620;18.786;2023-04-09T16:11:46;11.90;;;7.70;;
67757;SDS011;54562;47.620;18.786;2023-04-09T16:14:54;11.90;;;7.30;;
67757;SDS011;54562;47.620;18.786;2023-04-09T16:18:02;16.40;;;8.20;;
67757;SDS011;54562;47.620;18.786;2023-04-09T16:21:10;12.30;;;7.70;;
67757;SDS011;54562;47.620;18.786;2023-04-09T16:24:19;15.00;;;8.30;;
67757;SDS011;54562;47.620;18.786;2023-04-09T16:27:26;12.50;;;7.80;;
67757;SDS011;54562;47.620;18.786;2023-04-09T16:30:35;12.40;;;7.90;;
67757;SDS011;54562;47.620;18.786;2023-04-09T16:33:42;13.80;;;8.00;;
67757;SDS011;54562;47.620;18.786;2023-04-09T16:36:50;12.30;;;7.80;;
67757;SDS011;54562;47.620;18.786;2023-04-09T16:39:59;13.00;;;7.90;;
67757;SDS011;54562;47.620;18.786;2023-04-09T16:43:07;15.00;;;8.30;;
67757;SDS011;54562;47.620;18.786;2023-04-09T16:46:16;16.00;;;8.60;;
67757;SDS011;54562;47.620;18.786;2023-04-09T16:49:24;16.80;;;9.00;;
67757;SDS011;54562;47.620;18.786;2023-04-09T16:52:32;13.70;;;8.20;;
67757;SDS011;54562;47.620;18.786;2023-04-09T16:55:40;13.00;;;8.10;;
67757;SDS011;54562;47.620;18.786;2023-04-09T16:58:48;13.10;;;8.20;;
67757;SDS011;54562;47.620;18.786;2023-04-09T17:01:56;12.70;;;8.40;;
67757;SDS011;54562;47.620;18.786;2023-04-09T17:05:06;13.10;;;8.20;;
67757;SDS011;54562;47.620;18.786;2023-04-09T17:08:16;12.20;;;7.50;;
67757;SDS011;54562;47.620;18.786;2023-04-09T17:11:28;13.10;;;7.80;;
67757;SDS011;54562;47.620;18.786;2023-04-09T17:14:36;14.00;;;7.90;;
67757;SDS011;54562;47.620;18.786;2023-04-09T17:17:46;13.40;;;8.20;;
67757;SDS011;54562;47.620;18.786;2023-04-09T17:20:56;14.40;;;9.00;;
67757;SDS011;54562;47.620;18.786;2023-04-09T17:24:05;15.30;;;8.60;;
67757;SDS011;54562;47.620;18.786;2023-04-09T17:27:14;13.40;;;8.30;;
67757;SDS011;54562;47.620;18.786;2023-04-09T17:30:23;13.20;;;8.20;;
67757;SDS011;54562;47.620;18.786;2023-04-09T17:33:32;14.80;;;8.70;;
67757;SDS011;54562;47.620;18.786;2023-04-09T17:36:40;14.10;;;8.50;;
67757;SDS011;54562;47.620;18.786;2023-04-09T17:39:50;13.50;;;9.00;;
67757;SDS011;54562;47.620;18.786;2023-04-09T17:42:59;13.80;;;8.30;;
67757;SDS011;54562;47.620;18.786;2023-04-09T17:46:08;16.00;;;9.90;;
67757;SDS011;54562;47.620;18.786;2023-04-09T17:49:16;14.60;;;9.00;;
67757;SDS011;54562;47.620;18.786;2023-04-09T17:55:32;15.50;;;9.30;;
67757;SDS011;54562;47.620;18.786;2023-04-09T17:58:40;15.50;;;9.60;;
67757;SDS011;54562;47.620;18.786;2023-04-09T18:01:49;15.00;;;9.90;;
67757;SDS011;54562;47.620;18.786;2023-04-09T18:05:00;16.10;;;10.30;;
67757;SDS011;54562;47.620;18.786;2023-04-09T18:08:09;17.40;;;10.40;;
67757;SDS011;54562;47.620;18.786;2023-04-09T18:11:17;18.20;;;11.60;;
67757;SDS011;54562;47.620;18.786;2023-04-09T18:14:25;18.30;;;11.30;;
67757;SDS011;54562;47.620;18.786;2023-04-09T18:17:34;17.80;;;11.20;;
67757;SDS011;54562;47.620;18.786;2023-04-09T18:20:42;19.20;;;11.80;;
67757;SDS011;54562;47.620;18.786;2023-04-09T18:23:53;20.60;;;13.00;;
67757;SDS011;54562;47.620;18.786;2023-04-09T18:27:01;19.20;;;11.50;;
67757;SDS011;54562;47.620;18.786;2023-04-09T18:30:11;17.30;;;10.70;;
67757;SDS011;54562;47.620;18.786;2023-04-09T18:33:19;17.90;;;10.70;;
67757;SDS011;54562;47.620;18.786;2023-04-09T18:36:28;18.30;;;10.80;;
67757;SDS011;54562;47.620;18.786;2023-04-09T18:39:36;19.60;;;10.60;;
67757;SDS011;54562;47.620;18.786;2023-04-09T18:42:43;17.60;;;10.80;;
67757;SDS011;54562;47.620;18.786;2023-04-09T18:45:55;17.10;;;10.10;;
67757;SDS011;54562;47.620;18.786;2023-04-09T18:49:03;19.70;;;11.20;;